Home > Products > Valid Products > MTR

000
SAUS44 KEWX 271338
MTRATT
SPECI KATT 271335Z AUTO VRB03KT 7SM OVC005 21/21 A2979 RMK AO2
T02110206





000
SAUS44 KEWX 271300
MTRATT
SPECI KATT 271258Z AUTO 09005KT 5SM BR OVC004 21/21 A2976 RMK AO2
T02110206





000
SAUS44 KEWX 271252
MTRATT
METAR KATT 271251Z AUTO 09007KT 060V130 5SM BR OVC005 21/21 A2976
RMK AO2 SLP068 T02110206





000
SAUS44 KEWX 270729
MTRATT
SPECI KATT 270727Z AUTO 15009G16KT 10SM FEW043 FEW110 20/19 A2972
RMK AO2 RAE20 TSE21 PRESFR P0001 T02000194





000
SAUS44 KEWX 270642
MTRATT
SPECI KATT 270641Z AUTO 14010KT 1 3/4SM +TSRA BR FEW025 BKN048
OVC095 19/18 A2982 RMK AO2 PRESFR P0022 T01940183





000
SAUS44 KEWX 270614
MTRATT
SPECI KATT 270613Z AUTO VRB05KT 1 3/4SM +TSRA BR FEW037 BKN070
OVC095 20/19 A2985 RMK AO2 P0005 T02000194





000
SAUS44 KEWX 270546
MTRATT
SPECI KATT 270545Z AUTO 14004KT 3SM TSRA BR FEW029 BKN045 OVC065
21/19 A2984 RMK AO2 P0047





000
SAUS44 KEWX 270514
MTRATT
SPECI KATT 270513Z AUTO 30009G17KT 270V340 1 3/4SM +TSRA BR FEW014
BKN050 OVC110 21/19 A2988 RMK AO2 PRESRR P0009 T02060194





000
SAUS44 KEWX 270152
MTRATT
METAR KATT 270151Z AUTO 11006KT 10SM FEW008 BKN020 OVC044 23/22
A2978 RMK AO2 SLP072 T02330217





000
SAUS44 KEWX 270144
MTRATT
SPECI KATT 270143Z AUTO 11008G16KT 10SM FEW008 BKN021 OVC031 23/21
A2979 RMK AO2 T02330211





000
SAUS44 KEWX 270001
MTRATT
SPECI KATT 262358Z AUTO 09007KT 10SM BKN009 OVC027 24/22 A2978 RMK
AO2 T02390217





000
SAUS44 KEWX 262352
MTRATT
METAR KATT 262351Z AUTO VRB06KT 10SM SCT009 BKN027 24/22 A2978 RMK
AO2 SLP074 60001 T02390217 10317 20239 55002





000
SAUS44 KEWX 262053
MTRATT
METAR KATT 262051Z AUTO 20007G17KT 120V230 7SM FEW027 32/25 A2979
RMK AO2 SLP073 60001 T03170250 58026





000
SAUS44 KEWX 261928
MTRATT
SPECI KATT 261926Z AUTO 16009G18KT 6SM HZ FEW016 BKN023 BKN030 30/26
A2983 RMK AO2 RAB08E26 TSB04E20 P0001 T03000256





000
SAUS44 KEWX 261453
MTRATT
METAR KATT 261451Z AUTO VRB06KT 5SM BR BKN011 BKN017 OVC021 26/24
A2995 RMK AO2 SLP129 60000 T02610244 50002





000
SAUS44 KEWX 261154
MTRATT
METAR KATT 261151Z AUTO VRB04KT 6SM -RA BR SCT011 BKN025 OVC030
25/24 A2995 RMK AO2 RAB21 SLP127 P0000 60000 T02500239 10256 20250
52001





000
SAUS44 KEWX 260859 COR
MTRATT
METAR KATT 260851Z AUTO VRB06KT 8SM OVC010 26/23 A2994 RMK AO2
SLP126 T02560233 56010





000
SAUS44 KEWX 260654
MTRATT
METAR KATT 260651Z AUTO 18005KT 10SM OVC013 26/23 A2995 RMK AO2
SLP128 T02560233





000
SAUS44 KEWX 260522
MTRATT
SPECI KATT 260519Z AUTO 15007KT 10SM BKN014 OVC020 26/23 A2998 RMK
AO2 T02610233





000
SAUS44 KEWX 260459 COR
MTRATT
METAR KATT 260451Z AUTO 15008KT 10SM OVC017 26/23 A2999 RMK AO2
SLP143 T02610233





000
SAUS44 KEWX 252359 COR
MTRATT
METAR KATT 252351Z AUTO 16007KT 9SM BKN027 BKN032 OVC039 28/24 A2995
RMK AO2 SLP129 T02830239 10300 20278 55009





000
SAUS44 KEWX 252259 COR
MTRATT
METAR KATT 252251Z AUTO VRB05KT 6SM HZ BKN025 OVC033 28/24 A2995 RMK
AO2 SLP129 T02830244





000
SAUS44 KEWX 252226
MTRATT
SPECI KATT 252225Z AUTO 15009KT 120V190 6SM HZ BKN025 BKN030 OVC036
29/24 A2994 RMK AO2 T02890244





000
SAUS44 KEWX 252052
MTRATT
METAR KATT 252051Z AUTO 15009KT 6SM HZ SCT023 BKN034 29/24 A2998 RMK
AO2 SLP138 T02940244 58014





000
SAUS44 KEWX 251852
MTRATT
METAR KATT 251851Z AUTO 16005KT 6SM HZ FEW022 OVC038 28/24 A3003 RMK
AO2 SLP155 T02780244





000
SAUS44 KEWX 251837
MTRATT
SPECI KATT 251835Z AUTO VRB04KT 6SM HZ SCT024 OVC034 28/24 A3003 RMK
AO2 T02780239





000
SAUS44 KEWX 251601
MTRATT
SPECI KATT 251600Z AUTO 17005KT 8SM BKN020 OVC030 27/23 A3001 RMK
AO2 T02720233





000
SAUS44 KEWX 251259 COR
MTRATT
METAR KATT 251251Z AUTO VRB05KT 7SM OVC011 26/23 A2999 RMK AO2
SLP141 T02560233





000
SAUS44 KEWX 251152
MTRATT
METAR KATT 251151Z AUTO 17006KT 8SM OVC012 25/23 A2999 RMK AO2
SLP141 T02500233 10250 20250 53010





000
SAUS44 KEWX 251106
MTRATT
SPECI KATT 251105Z AUTO VRB04KT 9SM BKN012 BKN017 OVC027 25/23 A2998
RMK AO2 T02500233





000
SAUS44 KEWX 251024
MTRATT
SPECI KATT 251023Z AUTO VRB05KT 8SM BKN010 OVC017 25/23 A2998 RMK
AO2 CIG 008V013 T02500233





000
SAUS44 KEWX 250652
MTRATT
METAR KATT 250651Z AUTO VRB04KT 10SM BKN013 OVC024 25/23 A2998 RMK
AO2 SLP138 T02500228





000
SAUS44 KEWX 250552
MTRATT
METAR KATT 250551Z AUTO 14008G14KT 10SM OVC013 25/23 A2998 RMK AO2
SLP138 T02500228 10283 20250 403060233 50006





000
SAUS44 KEWX 250516
MTRATT
SPECI KATT 250515Z AUTO VRB05KT 10SM OVC014 26/23 A2998 RMK AO2
T02560228





000
SAUS44 KEWX 250434
MTRATT
SPECI KATT 250433Z AUTO VRB04KT 10SM BKN018 26/22 A2998 RMK AO2
T02560222





000
SAUS44 KEWX 250052
MTRATT
METAR KATT 250051Z AUTO 15010G18KT 10SM FEW027 SCT050 28/23 A2993
RMK AO2 SLP123 T02830228





000
SAUS44 KEWX 242306
MTRATT
SPECI KATT 242305Z AUTO 15007G17KT 130V190 10SM SCT030 SCT038 BKN065
29/23 A2992 RMK AO2 T02890233





000
SAUS44 KEWX 242252
MTRATT
METAR KATT 242251Z AUTO VRB05G15KT 10SM BKN029 BKN038 OVC070 29/23
A2993 RMK AO2 SLP120 T02890233





000
SAUS44 KEWX 242054
MTRATT
METAR KATT 242051Z AUTO 17006G14KT 10SM FEW030 OVC050 29/23 A2994
RMK AO2 SLP125 T02940233 56011





000
SAUS44 KEWX 241759 COR
MTRATT
METAR KATT 241751Z AUTO VRB05KT 10SM SCT030 OVC046 29/23 A2997 RMK
AO2 SLP137 T02940233 10294 20239 53002





000
SAUS44 KEWX 241652
MTRATT
METAR KATT 241651Z AUTO 15008G15KT 120V190 10SM FEW029 OVC040 29/22
A2997 RMK AO2 SLP134 T02890222





000
SAUS44 KEWX 241452
MTRATT
METAR KATT 241451Z AUTO 17007G14KT 10SM SCT017 SCT022 27/23 A2997
RMK AO2 SLP134 T02720228 51014





    US Dept of Commerce
    National Oceanic and Atmospheric Administration
    National Weather Service
    1325 East West Highway
    Silver Spring, MD 20910
    Page Author: NWS Internet Services Team
Disclaimer
Information Quality
Credits
Glossary
Privacy Policy
Freedom of Information Act (FOIA)
About Us
Career Opportunities